sensor_id;sensor_type;location;lat;lon;timestamp;P1;durP1;ratioP1;P2;durP2;ratioP2
59207;SDS011;44977;53.132;6.408;2023-02-05T00:00:38;15.07;;;10.27;;
59207;SDS011;44977;53.132;6.408;2023-02-05T00:05:39;16.02;;;10.80;;
59207;SDS011;44977;53.132;6.408;2023-02-05T00:10:40;16.40;;;10.32;;
59207;SDS011;44977;53.132;6.408;2023-02-05T00:15:40;15.68;;;10.38;;
59207;SDS011;44977;53.132;6.408;2023-02-05T00:20:41;16.50;;;10.70;;
59207;SDS011;44977;53.132;6.408;2023-02-05T00:25:42;18.10;;;11.57;;
59207;SDS011;44977;53.132;6.408;2023-02-05T00:30:42;17.27;;;10.90;;
59207;SDS011;44977;53.132;6.408;2023-02-05T00:35:43;17.40;;;11.27;;
59207;SDS011;44977;53.132;6.408;2023-02-05T00:40:44;17.60;;;11.70;;
59207;SDS011;44977;53.132;6.408;2023-02-05T00:45:45;17.95;;;11.43;;
59207;SDS011;44977;53.132;6.408;2023-02-05T00:50:49;19.17;;;11.95;;
59207;SDS011;44977;53.132;6.408;2023-02-05T00:55:51;18.55;;;12.23;;
59207;SDS011;44977;53.132;6.408;2023-02-05T01:00:52;16.98;;;12.32;;
59207;SDS011;44977;53.132;6.408;2023-02-05T01:05:52;19.38;;;11.90;;
59207;SDS011;44977;53.132;6.408;2023-02-05T01:10:53;18.75;;;12.05;;
59207;SDS011;44977;53.132;6.408;2023-02-05T01:15:55;19.55;;;13.13;;
59207;SDS011;44977;53.132;6.408;2023-02-05T01:20:56;21.52;;;12.65;;
59207;SDS011;44977;53.132;6.408;2023-02-05T01:25:58;21.63;;;13.38;;
59207;SDS011;44977;53.132;6.408;2023-02-05T01:30:58;23.92;;;14.50;;
59207;SDS011;44977;53.132;6.408;2023-02-05T01:35:59;21.83;;;13.98;;
59207;SDS011;44977;53.132;6.408;2023-02-05T01:41:00;25.02;;;14.82;;
59207;SDS011;44977;53.132;6.408;2023-02-05T01:46:15;25.02;;;14.75;;
59207;SDS011;44977;53.132;6.408;2023-02-05T01:51:20;23.63;;;15.18;;
59207;SDS011;44977;53.132;6.408;2023-02-05T01:56:23;30.92;;;16.33;;
59207;SDS011;44977;53.132;6.408;2023-02-05T02:01:28;23.87;;;14.50;;
59207;SDS011;44977;53.132;6.408;2023-02-05T02:06:32;23.55;;;16.35;;
59207;SDS011;44977;53.132;6.408;2023-02-05T02:11:34;25.40;;;15.48;;
59207;SDS011;44977;53.132;6.408;2023-02-05T02:16:38;23.52;;;15.30;;
59207;SDS011;44977;53.132;6.408;2023-02-05T02:22:24;27.92;;;16.58;;
59207;SDS011;44977;53.132;6.408;2023-02-05T02:32:15;27.75;;;16.65;;
59207;SDS011;44977;53.132;6.408;2023-02-05T02:48:14;29.73;;;17.10;;
59207;SDS011;44977;53.132;6.408;2023-02-05T02:53:22;32.28;;;17.58;;
59207;SDS011;44977;53.132;6.408;2023-02-05T03:03:32;36.90;;;19.05;;
59207;SDS011;44977;53.132;6.408;2023-02-05T03:08:55;31.30;;;18.10;;
59207;SDS011;44977;53.132;6.408;2023-02-05T03:14:05;36.63;;;20.63;;
59207;SDS011;44977;53.132;6.408;2023-02-05T03:19:05;40.45;;;19.80;;
59207;SDS011;44977;53.132;6.408;2023-02-05T03:24:07;38.78;;;20.27;;
59207;SDS011;44977;53.132;6.408;2023-02-05T03:29:10;35.08;;;19.25;;
59207;SDS011;44977;53.132;6.408;2023-02-05T03:50:17;42.13;;;22.75;;
59207;SDS011;44977;53.132;6.408;2023-02-05T03:55:27;43.95;;;21.98;;
59207;SDS011;44977;53.132;6.408;2023-02-05T04:00:34;45.13;;;23.38;;
59207;SDS011;44977;53.132;6.408;2023-02-05T04:05:35;39.55;;;21.50;;
59207;SDS011;44977;53.132;6.408;2023-02-05T04:10:36;44.03;;;22.70;;
59207;SDS011;44977;53.132;6.408;2023-02-05T04:15:37;43.00;;;23.05;;
59207;SDS011;44977;53.132;6.408;2023-02-05T04:20:38;43.95;;;22.95;;
59207;SDS011;44977;53.132;6.408;2023-02-05T04:25:38;43.25;;;23.67;;
59207;SDS011;44977;53.132;6.408;2023-02-05T04:30:39;39.10;;;23.52;;
59207;SDS011;44977;53.132;6.408;2023-02-05T04:35:40;43.92;;;22.50;;
59207;SDS011;44977;53.132;6.408;2023-02-05T04:40:41;32.83;;;19.95;;
59207;SDS011;44977;53.132;6.408;2023-02-05T04:45:41;33.45;;;19.88;;
59207;SDS011;44977;53.132;6.408;2023-02-05T04:50:42;39.58;;;20.45;;
59207;SDS011;44977;53.132;6.408;2023-02-05T04:55:43;32.97;;;18.02;;
59207;SDS011;44977;53.132;6.408;2023-02-05T05:00:43;28.52;;;15.90;;
59207;SDS011;44977;53.132;6.408;2023-02-05T05:05:44;25.90;;;14.82;;
59207;SDS011;44977;53.132;6.408;2023-02-05T05:10:46;23.15;;;13.07;;
59207;SDS011;44977;53.132;6.408;2023-02-05T05:15:53;17.13;;;10.43;;
59207;SDS011;44977;53.132;6.408;2023-02-05T05:20:54;15.23;;;7.78;;
59207;SDS011;44977;53.132;6.408;2023-02-05T05:25:55;13.60;;;6.20;;
59207;SDS011;44977;53.132;6.408;2023-02-05T05:30:56;12.30;;;4.45;;
59207;SDS011;44977;53.132;6.408;2023-02-05T05:35:56;15.60;;;3.92;;
59207;SDS011;44977;53.132;6.408;2023-02-05T05:40:57;19.55;;;4.47;;
59207;SDS011;44977;53.132;6.408;2023-02-05T05:46:17;17.73;;;3.42;;
59207;SDS011;44977;53.132;6.408;2023-02-05T05:51:24;16.77;;;3.42;;
59207;SDS011;44977;53.132;6.408;2023-02-05T05:56:25;16.83;;;3.03;;
59207;SDS011;44977;53.132;6.408;2023-02-05T06:01:26;19.08;;;3.38;;
59207;SDS011;44977;53.132;6.408;2023-02-05T06:06:27;21.55;;;3.17;;
59207;SDS011;44977;53.132;6.408;2023-02-05T06:11:28;15.07;;;2.75;;
59207;SDS011;44977;53.132;6.408;2023-02-05T06:16:28;10.80;;;2.42;;
59207;SDS011;44977;53.132;6.408;2023-02-05T06:21:29;17.40;;;2.80;;
59207;SDS011;44977;53.132;6.408;2023-02-05T06:26:30;14.38;;;2.40;;
59207;SDS011;44977;53.132;6.408;2023-02-05T06:31:31;16.45;;;2.20;;
59207;SDS011;44977;53.132;6.408;2023-02-05T06:36:31;14.25;;;2.80;;
59207;SDS011;44977;53.132;6.408;2023-02-05T06:41:32;16.45;;;3.22;;
59207;SDS011;44977;53.132;6.408;2023-02-05T06:46:33;13.05;;;2.60;;
59207;SDS011;44977;53.132;6.408;2023-02-05T06:51:33;17.50;;;3.00;;
59207;SDS011;44977;53.132;6.408;2023-02-05T06:56:34;14.65;;;2.88;;
59207;SDS011;44977;53.132;6.408;2023-02-05T07:01:35;15.93;;;2.60;;
59207;SDS011;44977;53.132;6.408;2023-02-05T07:06:35;12.25;;;2.58;;
59207;SDS011;44977;53.132;6.408;2023-02-05T07:11:36;14.23;;;2.50;;
59207;SDS011;44977;53.132;6.408;2023-02-05T07:16:37;15.57;;;2.75;;
59207;SDS011;44977;53.132;6.408;2023-02-05T07:21:37;14.23;;;2.78;;
59207;SDS011;44977;53.132;6.408;2023-02-05T07:26:38;14.55;;;2.83;;
59207;SDS011;44977;53.132;6.408;2023-02-05T07:31:41;12.93;;;2.63;;
59207;SDS011;44977;53.132;6.408;2023-02-05T07:36:42;14.20;;;3.10;;
59207;SDS011;44977;53.132;6.408;2023-02-05T07:41:43;12.80;;;3.00;;
59207;SDS011;44977;53.132;6.408;2023-02-05T07:46:44;16.27;;;3.22;;
59207;SDS011;44977;53.132;6.408;2023-02-05T07:51:44;16.27;;;2.95;;
59207;SDS011;44977;53.132;6.408;2023-02-05T07:56:46;15.90;;;3.60;;
59207;SDS011;44977;53.132;6.408;2023-02-05T08:01:47;18.48;;;3.92;;
59207;SDS011;44977;53.132;6.408;2023-02-05T08:06:47;20.60;;;4.30;;
59207;SDS011;44977;53.132;6.408;2023-02-05T08:11:48;21.30;;;3.78;;
59207;SDS011;44977;53.132;6.408;2023-02-05T08:16:48;21.45;;;4.05;;
59207;SDS011;44977;53.132;6.408;2023-02-05T08:21:49;22.27;;;4.40;;
59207;SDS011;44977;53.132;6.408;2023-02-05T08:26:50;23.08;;;4.28;;
59207;SDS011;44977;53.132;6.408;2023-02-05T08:31:51;22.30;;;4.57;;
59207;SDS011;44977;53.132;6.408;2023-02-05T08:36:52;20.25;;;4.70;;
59207;SDS011;44977;53.132;6.408;2023-02-05T08:41:52;24.77;;;5.00;;
59207;SDS011;44977;53.132;6.408;2023-02-05T08:46:53;26.17;;;4.93;;
59207;SDS011;44977;53.132;6.408;2023-02-05T08:51:54;28.30;;;5.80;;
59207;SDS011;44977;53.132;6.408;2023-02-05T08:56:55;23.08;;;5.30;;
59207;SDS011;44977;53.132;6.408;2023-02-05T09:01:56;24.75;;;5.30;;
59207;SDS011;44977;53.132;6.408;2023-02-05T09:06:57;27.20;;;4.78;;
59207;SDS011;44977;53.132;6.408;2023-02-05T09:11:57;26.52;;;5.38;;
59207;SDS011;44977;53.132;6.408;2023-02-05T09:16:58;25.83;;;5.32;;
59207;SDS011;44977;53.132;6.408;2023-02-05T09:21:59;25.08;;;5.25;;
59207;SDS011;44977;53.132;6.408;2023-02-05T09:27:00;25.40;;;5.85;;
59207;SDS011;44977;53.132;6.408;2023-02-05T09:32:00;23.83;;;4.72;;
59207;SDS011;44977;53.132;6.408;2023-02-05T09:37:01;24.73;;;5.57;;
59207;SDS011;44977;53.132;6.408;2023-02-05T09:47:24;21.25;;;3.83;;
59207;SDS011;44977;53.132;6.408;2023-02-05T09:52:33;14.23;;;2.95;;
59207;SDS011;44977;53.132;6.408;2023-02-05T09:57:38;17.30;;;3.20;;
59207;SDS011;44977;53.132;6.408;2023-02-05T10:02:44;20.77;;;4.13;;
59207;SDS011;44977;53.132;6.408;2023-02-05T10:29:04;21.13;;;4.73;;
59207;SDS011;44977;53.132;6.408;2023-02-05T10:39:29;13.82;;;3.40;;
59207;SDS011;44977;53.132;6.408;2023-02-05T10:44:40;17.17;;;3.35;;
59207;SDS011;44977;53.132;6.408;2023-02-05T10:49:48;15.30;;;3.20;;
59207;SDS011;44977;53.132;6.408;2023-02-05T10:54:54;16.00;;;3.10;;
59207;SDS011;44977;53.132;6.408;2023-02-05T10:59:56;18.65;;;3.90;;
59207;SDS011;44977;53.132;6.408;2023-02-05T11:05:02;18.13;;;4.75;;
59207;SDS011;44977;53.132;6.408;2023-02-05T11:15:51;27.63;;;5.65;;
59207;SDS011;44977;53.132;6.408;2023-02-05T11:21:03;27.85;;;6.57;;
59207;SDS011;44977;53.132;6.408;2023-02-05T11:26:18;30.58;;;6.78;;
59207;SDS011;44977;53.132;6.408;2023-02-05T11:31:28;36.15;;;7.55;;
59207;SDS011;44977;53.132;6.408;2023-02-05T11:36:32;29.25;;;7.47;;
59207;SDS011;44977;53.132;6.408;2023-02-05T11:46:47;25.83;;;6.20;;
59207;SDS011;44977;53.132;6.408;2023-02-05T11:51:49;30.17;;;6.85;;
59207;SDS011;44977;53.132;6.408;2023-02-05T11:57:06;27.83;;;6.10;;
59207;SDS011;44977;53.132;6.408;2023-02-05T12:07:29;25.33;;;6.55;;
59207;SDS011;44977;53.132;6.408;2023-02-05T12:12:41;22.55;;;6.03;;
59207;SDS011;44977;53.132;6.408;2023-02-05T12:17:50;26.45;;;6.15;;
59207;SDS011;44977;53.132;6.408;2023-02-05T13:01:07;24.63;;;6.65;;
59207;SDS011;44977;53.132;6.408;2023-02-05T13:06:23;26.35;;;6.43;;
59207;SDS011;44977;53.132;6.408;2023-02-05T13:11:38;28.20;;;7.00;;
59207;SDS011;44977;53.132;6.408;2023-02-05T13:17:05;22.75;;;6.20;;
59207;SDS011;44977;53.132;6.408;2023-02-05T13:22:20;26.17;;;6.23;;
59207;SDS011;44977;53.132;6.408;2023-02-05T13:27:44;27.63;;;6.13;;
59207;SDS011;44977;53.132;6.408;2023-02-05T13:33:07;29.88;;;6.88;;
59207;SDS011;44977;53.132;6.408;2023-02-05T13:43:27;25.75;;;6.53;;
59207;SDS011;44977;53.132;6.408;2023-02-05T14:04:21;28.35;;;6.30;;
59207;SDS011;44977;53.132;6.408;2023-02-05T14:09:59;31.25;;;7.88;;
59207;SDS011;44977;53.132;6.408;2023-02-05T14:20:28;29.17;;;6.82;;
59207;SDS011;44977;53.132;6.408;2023-02-05T14:30:50;35.25;;;7.55;;
59207;SDS011;44977;53.132;6.408;2023-02-05T14:35:55;26.77;;;7.00;;
59207;SDS011;44977;53.132;6.408;2023-02-05T14:41:14;31.30;;;7.90;;
59207;SDS011;44977;53.132;6.408;2023-02-05T14:46:20;31.23;;;7.47;;
59207;SDS011;44977;53.132;6.408;2023-02-05T14:51:38;28.05;;;6.75;;
59207;SDS011;44977;53.132;6.408;2023-02-05T14:56:48;30.98;;;7.55;;
59207;SDS011;44977;53.132;6.408;2023-02-05T15:01:51;34.40;;;7.80;;
59207;SDS011;44977;53.132;6.408;2023-02-05T15:06:52;33.97;;;8.23;;
59207;SDS011;44977;53.132;6.408;2023-02-05T15:12:02;34.42;;;8.20;;
59207;SDS011;44977;53.132;6.408;2023-02-05T15:27:41;33.92;;;8.20;;
59207;SDS011;44977;53.132;6.408;2023-02-05T15:32:46;37.28;;;8.43;;
59207;SDS011;44977;53.132;6.408;2023-02-05T15:38:18;34.70;;;8.00;;
59207;SDS011;44977;53.132;6.408;2023-02-05T15:43:23;38.95;;;9.40;;
59207;SDS011;44977;53.132;6.408;2023-02-05T15:48:26;33.50;;;8.02;;
59207;SDS011;44977;53.132;6.408;2023-02-05T15:58:35;32.75;;;7.45;;
59207;SDS011;44977;53.132;6.408;2023-02-05T16:03:36;32.20;;;8.10;;
59207;SDS011;44977;53.132;6.408;2023-02-05T16:08:43;33.80;;;8.63;;
59207;SDS011;44977;53.132;6.408;2023-02-05T16:13:46;33.05;;;7.90;;
59207;SDS011;44977;53.132;6.408;2023-02-05T16:18:52;32.85;;;7.13;;
59207;SDS011;44977;53.132;6.408;2023-02-05T16:23:57;31.38;;;7.80;;
59207;SDS011;44977;53.132;6.408;2023-02-05T16:29:02;33.35;;;7.68;;
59207;SDS011;44977;53.132;6.408;2023-02-05T16:34:12;36.58;;;8.52;;
59207;SDS011;44977;53.132;6.408;2023-02-05T16:39:18;28.35;;;8.70;;
59207;SDS011;44977;53.132;6.408;2023-02-05T16:44:36;35.90;;;9.07;;
59207;SDS011;44977;53.132;6.408;2023-02-05T16:49:46;29.02;;;7.70;;
59207;SDS011;44977;53.132;6.408;2023-02-05T16:54:51;34.05;;;8.10;;
59207;SDS011;44977;53.132;6.408;2023-02-05T16:59:54;28.60;;;7.78;;
59207;SDS011;44977;53.132;6.408;2023-02-05T17:05:21;31.40;;;8.55;;
59207;SDS011;44977;53.132;6.408;2023-02-05T17:10:28;30.70;;;8.07;;
59207;SDS011;44977;53.132;6.408;2023-02-05T17:15:42;27.60;;;8.30;;
59207;SDS011;44977;53.132;6.408;2023-02-05T17:26:26;38.30;;;11.63;;
59207;SDS011;44977;53.132;6.408;2023-02-05T17:31:56;38.25;;;11.93;;
59207;SDS011;44977;53.132;6.408;2023-02-05T17:36:57;36.92;;;10.80;;
59207;SDS011;44977;53.132;6.408;2023-02-05T17:41:58;36.15;;;10.43;;
59207;SDS011;44977;53.132;6.408;2023-02-05T17:47:08;36.58;;;8.63;;
59207;SDS011;44977;53.132;6.408;2023-02-05T17:52:09;37.33;;;9.18;;
59207;SDS011;44977;53.132;6.408;2023-02-05T17:57:14;37.03;;;8.75;;
59207;SDS011;44977;53.132;6.408;2023-02-05T18:02:28;43.80;;;9.18;;
59207;SDS011;44977;53.132;6.408;2023-02-05T18:07:56;35.17;;;8.07;;
59207;SDS011;44977;53.132;6.408;2023-02-05T18:13:00;34.33;;;9.35;;
59207;SDS011;44977;53.132;6.408;2023-02-05T18:18:02;38.35;;;10.73;;
59207;SDS011;44977;53.132;6.408;2023-02-05T18:23:02;32.83;;;9.00;;
59207;SDS011;44977;53.132;6.408;2023-02-05T18:28:03;35.38;;;10.15;;
59207;SDS011;44977;53.132;6.408;2023-02-05T18:33:04;43.03;;;10.88;;
59207;SDS011;44977;53.132;6.408;2023-02-05T18:38:06;33.42;;;9.00;;
59207;SDS011;44977;53.132;6.408;2023-02-05T18:43:06;35.70;;;10.13;;
59207;SDS011;44977;53.132;6.408;2023-02-05T18:48:07;35.50;;;11.00;;
59207;SDS011;44977;53.132;6.408;2023-02-05T18:53:08;39.55;;;10.18;;
59207;SDS011;44977;53.132;6.408;2023-02-05T18:58:08;38.30;;;10.00;;
59207;SDS011;44977;53.132;6.408;2023-02-05T19:03:09;39.55;;;11.15;;
59207;SDS011;44977;53.132;6.408;2023-02-05T19:08:10;36.10;;;11.13;;
59207;SDS011;44977;53.132;6.408;2023-02-05T19:13:10;38.33;;;11.60;;
59207;SDS011;44977;53.132;6.408;2023-02-05T19:18:11;35.75;;;11.25;;
59207;SDS011;44977;53.132;6.408;2023-02-05T19:23:12;41.58;;;15.50;;
59207;SDS011;44977;53.132;6.408;2023-02-05T19:28:13;35.22;;;11.85;;
59207;SDS011;44977;53.132;6.408;2023-02-05T19:33:13;36.88;;;13.63;;
59207;SDS011;44977;53.132;6.408;2023-02-05T19:38:14;35.63;;;12.52;;
59207;SDS011;44977;53.132;6.408;2023-02-05T19:43:15;37.30;;;11.13;;
59207;SDS011;44977;53.132;6.408;2023-02-05T19:48:17;36.78;;;10.88;;
59207;SDS011;44977;53.132;6.408;2023-02-05T19:53:17;35.28;;;10.93;;
59207;SDS011;44977;53.132;6.408;2023-02-05T19:58:20;36.42;;;10.70;;
59207;SDS011;44977;53.132;6.408;2023-02-05T20:03:20;36.42;;;10.00;;
59207;SDS011;44977;53.132;6.408;2023-02-05T20:08:21;37.55;;;11.13;;
59207;SDS011;44977;53.132;6.408;2023-02-05T20:13:28;34.60;;;11.32;;
59207;SDS011;44977;53.132;6.408;2023-02-05T20:18:30;38.08;;;9.98;;
59207;SDS011;44977;53.132;6.408;2023-02-05T20:23:31;33.25;;;9.60;;
59207;SDS011;44977;53.132;6.408;2023-02-05T20:28:33;32.63;;;9.73;;
59207;SDS011;44977;53.132;6.408;2023-02-05T20:33:55;41.08;;;13.15;;
59207;SDS011;44977;53.132;6.408;2023-02-05T20:38:56;41.88;;;11.95;;
59207;SDS011;44977;53.132;6.408;2023-02-05T20:43:58;36.58;;;11.70;;
59207;SDS011;44977;53.132;6.408;2023-02-05T20:48:59;30.52;;;10.88;;
59207;SDS011;44977;53.132;6.408;2023-02-05T20:54:00;38.30;;;11.75;;
59207;SDS011;44977;53.132;6.408;2023-02-05T20:59:01;34.30;;;12.10;;
59207;SDS011;44977;53.132;6.408;2023-02-05T21:04:04;35.75;;;13.52;;
59207;SDS011;44977;53.132;6.408;2023-02-05T21:09:07;39.55;;;17.90;;
59207;SDS011;44977;53.132;6.408;2023-02-05T21:14:08;48.47;;;22.52;;
59207;SDS011;44977;53.132;6.408;2023-02-05T21:19:09;45.30;;;17.08;;
59207;SDS011;44977;53.132;6.408;2023-02-05T21:24:12;33.67;;;11.30;;
59207;SDS011;44977;53.132;6.408;2023-02-05T21:29:14;38.33;;;12.85;;
59207;SDS011;44977;53.132;6.408;2023-02-05T21:34:18;34.55;;;11.60;;
59207;SDS011;44977;53.132;6.408;2023-02-05T21:39:24;34.08;;;12.13;;
59207;SDS011;44977;53.132;6.408;2023-02-05T21:44:24;31.92;;;10.88;;
59207;SDS011;44977;53.132;6.408;2023-02-05T21:49:25;33.15;;;10.43;;
59207;SDS011;44977;53.132;6.408;2023-02-05T21:54:26;31.27;;;10.57;;
59207;SDS011;44977;53.132;6.408;2023-02-05T21:59:26;35.78;;;10.98;;
59207;SDS011;44977;53.132;6.408;2023-02-05T22:04:27;28.35;;;8.98;;
59207;SDS011;44977;53.132;6.408;2023-02-05T22:09:28;41.25;;;10.35;;
59207;SDS011;44977;53.132;6.408;2023-02-05T22:14:29;31.17;;;9.00;;
59207;SDS011;44977;53.132;6.408;2023-02-05T22:19:30;32.45;;;8.15;;
59207;SDS011;44977;53.132;6.408;2023-02-05T22:24:31;30.63;;;8.48;;
59207;SDS011;44977;53.132;6.408;2023-02-05T22:29:31;33.22;;;8.40;;
59207;SDS011;44977;53.132;6.408;2023-02-05T22:34:33;23.75;;;8.10;;
59207;SDS011;44977;53.132;6.408;2023-02-05T22:39:34;32.05;;;9.40;;
59207;SDS011;44977;53.132;6.408;2023-02-05T22:44:35;27.73;;;8.38;;
59207;SDS011;44977;53.132;6.408;2023-02-05T22:49:35;30.45;;;9.30;;
59207;SDS011;44977;53.132;6.408;2023-02-05T22:54:36;30.63;;;9.18;;
59207;SDS011;44977;53.132;6.408;2023-02-05T22:59:37;30.38;;;8.90;;
59207;SDS011;44977;53.132;6.408;2023-02-05T23:04:37;29.90;;;8.65;;
59207;SDS011;44977;53.132;6.408;2023-02-05T23:09:38;37.28;;;11.80;;
59207;SDS011;44977;53.132;6.408;2023-02-05T23:14:39;34.33;;;10.95;;
59207;SDS011;44977;53.132;6.408;2023-02-05T23:19:39;37.28;;;8.77;;
59207;SDS011;44977;53.132;6.408;2023-02-05T23:24:40;30.45;;;8.07;;
59207;SDS011;44977;53.132;6.408;2023-02-05T23:29:40;29.63;;;7.93;;
59207;SDS011;44977;53.132;6.408;2023-02-05T23:34:41;27.08;;;6.72;;
59207;SDS011;44977;53.132;6.408;2023-02-05T23:39:42;28.02;;;6.93;;
59207;SDS011;44977;53.132;6.408;2023-02-05T23:44:43;25.40;;;7.40;;
59207;SDS011;44977;53.132;6.408;2023-02-05T23:49:43;28.42;;;6.88;;
59207;SDS011;44977;53.132;6.408;2023-02-05T23:54:44;28.73;;;7.05;;
59207;SDS011;44977;53.132;6.408;2023-02-05T23:59:44;26.67;;;7.47;;
